sensor_id;sensor_type;location;lat;lon;timestamp;P1;durP1;ratioP1;P2;durP2;ratioP2
9834;SDS011;4956;50.996;13.716;2022-11-20T00:00:27;15.43;;;8.50;;
9834;SDS011;4956;50.996;13.716;2022-11-20T00:03:47;14.77;;;8.35;;
9834;SDS011;4956;50.996;13.716;2022-11-20T00:07:08;13.80;;;7.93;;
9834;SDS011;4956;50.996;13.716;2022-11-20T00:10:28;16.80;;;8.45;;
9834;SDS011;4956;50.996;13.716;2022-11-20T00:13:49;13.93;;;7.88;;
9834;SDS011;4956;50.996;13.716;2022-11-20T00:17:11;13.93;;;7.95;;
9834;SDS011;4956;50.996;13.716;2022-11-20T00:20:32;16.23;;;8.52;;
9834;SDS011;4956;50.996;13.716;2022-11-20T00:23:53;16.02;;;7.75;;
9834;SDS011;4956;50.996;13.716;2022-11-20T00:27:14;14.98;;;7.68;;
9834;SDS011;4956;50.996;13.716;2022-11-20T00:30:35;15.40;;;8.07;;
9834;SDS011;4956;50.996;13.716;2022-11-20T00:33:55;14.80;;;7.85;;
9834;SDS011;4956;50.996;13.716;2022-11-20T00:37:15;15.98;;;8.35;;
9834;SDS011;4956;50.996;13.716;2022-11-20T00:40:36;14.23;;;8.18;;
9834;SDS011;4956;50.996;13.716;2022-11-20T00:43:56;16.25;;;8.23;;
9834;SDS011;4956;50.996;13.716;2022-11-20T00:47:17;15.43;;;8.75;;
9834;SDS011;4956;50.996;13.716;2022-11-20T00:50:37;15.30;;;8.10;;
9834;SDS011;4956;50.996;13.716;2022-11-20T00:53:58;14.77;;;8.50;;
9834;SDS011;4956;50.996;13.716;2022-11-20T00:57:19;16.90;;;8.70;;
9834;SDS011;4956;50.996;13.716;2022-11-20T01:00:42;16.42;;;9.18;;
9834;SDS011;4956;50.996;13.716;2022-11-20T01:04:02;14.55;;;8.52;;
9834;SDS011;4956;50.996;13.716;2022-11-20T01:07:23;16.40;;;8.55;;
9834;SDS011;4956;50.996;13.716;2022-11-20T01:10:43;15.52;;;8.30;;
9834;SDS011;4956;50.996;13.716;2022-11-20T01:14:04;15.25;;;7.88;;
9834;SDS011;4956;50.996;13.716;2022-11-20T01:17:26;17.20;;;8.57;;
9834;SDS011;4956;50.996;13.716;2022-11-20T01:20:46;15.75;;;8.45;;
9834;SDS011;4956;50.996;13.716;2022-11-20T01:24:07;15.88;;;8.45;;
9834;SDS011;4956;50.996;13.716;2022-11-20T01:27:30;16.15;;;8.50;;
9834;SDS011;4956;50.996;13.716;2022-11-20T01:30:51;17.35;;;8.73;;
9834;SDS011;4956;50.996;13.716;2022-11-20T01:34:15;14.00;;;7.88;;
9834;SDS011;4956;50.996;13.716;2022-11-20T01:37:37;15.48;;;8.38;;
9834;SDS011;4956;50.996;13.716;2022-11-20T01:40:57;16.30;;;8.38;;
9834;SDS011;4956;50.996;13.716;2022-11-20T01:44:19;15.38;;;8.27;;
9834;SDS011;4956;50.996;13.716;2022-11-20T01:47:43;16.83;;;8.52;;
9834;SDS011;4956;50.996;13.716;2022-11-20T01:51:06;14.77;;;8.55;;
9834;SDS011;4956;50.996;13.716;2022-11-20T01:54:33;15.35;;;8.63;;
9834;SDS011;4956;50.996;13.716;2022-11-20T01:57:55;15.73;;;8.23;;
9834;SDS011;4956;50.996;13.716;2022-11-20T02:01:16;14.73;;;8.25;;
9834;SDS011;4956;50.996;13.716;2022-11-20T02:04:37;16.10;;;8.80;;
9834;SDS011;4956;50.996;13.716;2022-11-20T02:07:57;16.30;;;8.70;;
9834;SDS011;4956;50.996;13.716;2022-11-20T02:11:19;15.48;;;7.75;;
9834;SDS011;4956;50.996;13.716;2022-11-20T02:14:39;17.25;;;8.73;;
9834;SDS011;4956;50.996;13.716;2022-11-20T02:18:00;16.50;;;8.35;;
9834;SDS011;4956;50.996;13.716;2022-11-20T02:24:43;17.02;;;8.77;;
9834;SDS011;4956;50.996;13.716;2022-11-20T02:28:05;16.60;;;8.63;;
9834;SDS011;4956;50.996;13.716;2022-11-20T02:31:26;16.15;;;8.35;;
9834;SDS011;4956;50.996;13.716;2022-11-20T02:34:46;17.73;;;8.88;;
9834;SDS011;4956;50.996;13.716;2022-11-20T02:38:06;16.42;;;8.35;;
9834;SDS011;4956;50.996;13.716;2022-11-20T02:41:33;17.45;;;8.38;;
9834;SDS011;4956;50.996;13.716;2022-11-20T02:44:55;15.63;;;7.85;;
9834;SDS011;4956;50.996;13.716;2022-11-20T02:48:15;13.00;;;7.22;;
9834;SDS011;4956;50.996;13.716;2022-11-20T02:51:36;15.57;;;6.97;;
9834;SDS011;4956;50.996;13.716;2022-11-20T02:54:56;14.02;;;7.07;;
9834;SDS011;4956;50.996;13.716;2022-11-20T02:58:16;10.82;;;6.90;;
9834;SDS011;4956;50.996;13.716;2022-11-20T03:01:37;12.05;;;6.72;;
9834;SDS011;4956;50.996;13.716;2022-11-20T03:04:57;14.15;;;7.20;;
9834;SDS011;4956;50.996;13.716;2022-11-20T03:08:17;12.77;;;7.00;;
9834;SDS011;4956;50.996;13.716;2022-11-20T03:11:38;11.23;;;6.13;;
9834;SDS011;4956;50.996;13.716;2022-11-20T03:14:58;13.50;;;6.68;;
9834;SDS011;4956;50.996;13.716;2022-11-20T03:18:19;12.38;;;6.72;;
9834;SDS011;4956;50.996;13.716;2022-11-20T03:21:39;12.45;;;7.00;;
9834;SDS011;4956;50.996;13.716;2022-11-20T03:24:59;13.98;;;7.07;;
9834;SDS011;4956;50.996;13.716;2022-11-20T03:28:20;12.82;;;7.22;;
9834;SDS011;4956;50.996;13.716;2022-11-20T03:31:40;15.32;;;7.82;;
9834;SDS011;4956;50.996;13.716;2022-11-20T03:35:01;14.50;;;7.97;;
9834;SDS011;4956;50.996;13.716;2022-11-20T03:38:21;15.13;;;8.32;;
9834;SDS011;4956;50.996;13.716;2022-11-20T03:41:42;12.80;;;7.15;;
9834;SDS011;4956;50.996;13.716;2022-11-20T03:45:03;14.57;;;7.88;;
9834;SDS011;4956;50.996;13.716;2022-11-20T03:48:24;13.48;;;7.38;;
9834;SDS011;4956;50.996;13.716;2022-11-20T03:51:45;12.73;;;7.28;;
9834;SDS011;4956;50.996;13.716;2022-11-20T03:55:05;13.43;;;7.25;;
9834;SDS011;4956;50.996;13.716;2022-11-20T03:58:26;14.27;;;7.35;;
9834;SDS011;4956;50.996;13.716;2022-11-20T04:01:47;14.05;;;7.32;;
9834;SDS011;4956;50.996;13.716;2022-11-20T04:05:07;16.52;;;8.43;;
9834;SDS011;4956;50.996;13.716;2022-11-20T04:08:28;16.05;;;8.65;;
9834;SDS011;4956;50.996;13.716;2022-11-20T04:11:49;15.02;;;7.80;;
9834;SDS011;4956;50.996;13.716;2022-11-20T04:15:09;15.32;;;8.43;;
9834;SDS011;4956;50.996;13.716;2022-11-20T04:18:29;15.43;;;8.10;;
9834;SDS011;4956;50.996;13.716;2022-11-20T04:21:50;15.77;;;8.15;;
9834;SDS011;4956;50.996;13.716;2022-11-20T04:25:10;17.50;;;8.63;;
9834;SDS011;4956;50.996;13.716;2022-11-20T04:28:30;15.48;;;8.50;;
9834;SDS011;4956;50.996;13.716;2022-11-20T04:31:51;15.40;;;8.20;;
9834;SDS011;4956;50.996;13.716;2022-11-20T04:35:11;16.88;;;9.07;;
9834;SDS011;4956;50.996;13.716;2022-11-20T04:38:32;18.05;;;9.38;;
9834;SDS011;4956;50.996;13.716;2022-11-20T04:41:52;19.67;;;8.93;;
9834;SDS011;4956;50.996;13.716;2022-11-20T04:45:32;17.63;;;8.93;;
9834;SDS011;4956;50.996;13.716;2022-11-20T04:48:53;18.90;;;9.48;;
9834;SDS011;4956;50.996;13.716;2022-11-20T04:52:13;15.13;;;8.50;;
9834;SDS011;4956;50.996;13.716;2022-11-20T04:55:33;17.02;;;8.73;;
9834;SDS011;4956;50.996;13.716;2022-11-20T04:58:54;17.52;;;9.30;;
9834;SDS011;4956;50.996;13.716;2022-11-20T05:02:14;18.65;;;9.02;;
9834;SDS011;4956;50.996;13.716;2022-11-20T05:05:37;17.17;;;8.93;;
9834;SDS011;4956;50.996;13.716;2022-11-20T05:08:57;16.35;;;8.90;;
9834;SDS011;4956;50.996;13.716;2022-11-20T05:12:18;17.77;;;9.05;;
9834;SDS011;4956;50.996;13.716;2022-11-20T05:15:38;17.67;;;9.20;;
9834;SDS011;4956;50.996;13.716;2022-11-20T05:18:58;17.20;;;8.82;;
9834;SDS011;4956;50.996;13.716;2022-11-20T05:22:19;17.67;;;8.55;;
9834;SDS011;4956;50.996;13.716;2022-11-20T05:25:39;14.43;;;7.95;;
9834;SDS011;4956;50.996;13.716;2022-11-20T05:28:59;16.35;;;8.05;;
9834;SDS011;4956;50.996;13.716;2022-11-20T05:32:20;14.77;;;7.47;;
9834;SDS011;4956;50.996;13.716;2022-11-20T05:35:40;16.70;;;8.70;;
9834;SDS011;4956;50.996;13.716;2022-11-20T05:39:01;17.90;;;8.38;;
9834;SDS011;4956;50.996;13.716;2022-11-20T05:42:21;16.00;;;8.00;;
9834;SDS011;4956;50.996;13.716;2022-11-20T05:45:53;15.45;;;7.95;;
9834;SDS011;4956;50.996;13.716;2022-11-20T05:49:14;14.35;;;7.22;;
9834;SDS011;4956;50.996;13.716;2022-11-20T05:52:34;14.55;;;7.35;;
9834;SDS011;4956;50.996;13.716;2022-11-20T05:56:01;15.65;;;8.05;;
9834;SDS011;4956;50.996;13.716;2022-11-20T05:59:26;14.07;;;8.02;;
9834;SDS011;4956;50.996;13.716;2022-11-20T06:02:46;16.45;;;8.85;;
9834;SDS011;4956;50.996;13.716;2022-11-20T06:06:07;17.08;;;8.15;;
9834;SDS011;4956;50.996;13.716;2022-11-20T06:09:28;16.17;;;8.00;;
9834;SDS011;4956;50.996;13.716;2022-11-20T06:12:49;16.75;;;7.80;;
9834;SDS011;4956;50.996;13.716;2022-11-20T06:16:09;15.02;;;7.80;;
9834;SDS011;4956;50.996;13.716;2022-11-20T06:19:31;13.95;;;7.55;;
9834;SDS011;4956;50.996;13.716;2022-11-20T06:22:51;14.23;;;7.18;;
9834;SDS011;4956;50.996;13.716;2022-11-20T06:26:15;12.88;;;6.85;;
9834;SDS011;4956;50.996;13.716;2022-11-20T06:29:37;11.60;;;6.45;;
9834;SDS011;4956;50.996;13.716;2022-11-20T06:32:58;11.82;;;6.78;;
9834;SDS011;4956;50.996;13.716;2022-11-20T06:36:19;13.05;;;6.40;;
9834;SDS011;4956;50.996;13.716;2022-11-20T06:39:40;12.38;;;6.55;;
9834;SDS011;4956;50.996;13.716;2022-11-20T06:43:00;12.93;;;6.82;;
9834;SDS011;4956;50.996;13.716;2022-11-20T06:46:23;10.55;;;6.18;;
9834;SDS011;4956;50.996;13.716;2022-11-20T06:49:43;11.40;;;5.78;;
9834;SDS011;4956;50.996;13.716;2022-11-20T06:53:04;10.63;;;6.43;;
9834;SDS011;4956;50.996;13.716;2022-11-20T06:56:25;11.45;;;6.38;;
9834;SDS011;4956;50.996;13.716;2022-11-20T06:59:45;11.65;;;6.30;;
9834;SDS011;4956;50.996;13.716;2022-11-20T07:03:06;12.63;;;7.07;;
9834;SDS011;4956;50.996;13.716;2022-11-20T07:06:29;14.32;;;7.05;;
9834;SDS011;4956;50.996;13.716;2022-11-20T07:09:50;13.55;;;6.55;;
9834;SDS011;4956;50.996;13.716;2022-11-20T07:13:10;15.13;;;7.43;;
9834;SDS011;4956;50.996;13.716;2022-11-20T07:16:30;13.60;;;7.32;;
9834;SDS011;4956;50.996;13.716;2022-11-20T07:19:51;12.80;;;6.80;;
9834;SDS011;4956;50.996;13.716;2022-11-20T07:23:11;12.00;;;6.95;;
9834;SDS011;4956;50.996;13.716;2022-11-20T07:26:31;14.43;;;7.68;;
9834;SDS011;4956;50.996;13.716;2022-11-20T07:29:52;14.95;;;8.07;;
9834;SDS011;4956;50.996;13.716;2022-11-20T07:33:12;15.70;;;8.07;;
9834;SDS011;4956;50.996;13.716;2022-11-20T07:36:32;13.27;;;7.30;;
9834;SDS011;4956;50.996;13.716;2022-11-20T07:39:53;15.40;;;7.88;;
9834;SDS011;4956;50.996;13.716;2022-11-20T07:43:13;13.73;;;7.65;;
9834;SDS011;4956;50.996;13.716;2022-11-20T07:46:33;12.75;;;7.60;;
9834;SDS011;4956;50.996;13.716;2022-11-20T07:49:54;12.82;;;7.13;;
9834;SDS011;4956;50.996;13.716;2022-11-20T07:53:14;13.77;;;7.88;;
9834;SDS011;4956;50.996;13.716;2022-11-20T07:56:40;15.40;;;8.63;;
9834;SDS011;4956;50.996;13.716;2022-11-20T08:00:01;16.27;;;8.48;;
9834;SDS011;4956;50.996;13.716;2022-11-20T08:03:32;17.15;;;8.35;;
9834;SDS011;4956;50.996;13.716;2022-11-20T08:06:53;17.05;;;9.45;;
9834;SDS011;4956;50.996;13.716;2022-11-20T08:10:14;15.90;;;8.80;;
9834;SDS011;4956;50.996;13.716;2022-11-20T08:13:35;16.40;;;8.75;;
9834;SDS011;4956;50.996;13.716;2022-11-20T08:17:14;15.55;;;8.45;;
9834;SDS011;4956;50.996;13.716;2022-11-20T08:20:35;14.63;;;7.78;;
9834;SDS011;4956;50.996;13.716;2022-11-20T08:23:55;13.90;;;7.63;;
9834;SDS011;4956;50.996;13.716;2022-11-20T08:27:15;15.43;;;8.18;;
9834;SDS011;4956;50.996;13.716;2022-11-20T08:30:36;13.88;;;7.95;;
9834;SDS011;4956;50.996;13.716;2022-11-20T08:33:57;15.57;;;8.98;;
9834;SDS011;4956;50.996;13.716;2022-11-20T08:37:18;15.38;;;8.68;;
9834;SDS011;4956;50.996;13.716;2022-11-20T08:40:38;16.13;;;8.00;;
9834;SDS011;4956;50.996;13.716;2022-11-20T08:43:59;16.00;;;8.32;;
9834;SDS011;4956;50.996;13.716;2022-11-20T08:47:21;19.90;;;9.40;;
9834;SDS011;4956;50.996;13.716;2022-11-20T08:50:41;17.35;;;8.80;;
9834;SDS011;4956;50.996;13.716;2022-11-20T08:54:02;16.70;;;8.70;;
9834;SDS011;4956;50.996;13.716;2022-11-20T08:57:23;14.73;;;8.40;;
9834;SDS011;4956;50.996;13.716;2022-11-20T09:00:43;14.98;;;8.32;;
9834;SDS011;4956;50.996;13.716;2022-11-20T09:04:04;13.48;;;8.13;;
9834;SDS011;4956;50.996;13.716;2022-11-20T09:07:24;13.63;;;8.18;;
9834;SDS011;4956;50.996;13.716;2022-11-20T09:10:45;14.57;;;8.35;;
9834;SDS011;4956;50.996;13.716;2022-11-20T09:14:05;13.02;;;8.10;;
9834;SDS011;4956;50.996;13.716;2022-11-20T09:17:25;14.23;;;8.65;;
9834;SDS011;4956;50.996;13.716;2022-11-20T09:20:46;14.60;;;8.48;;
9834;SDS011;4956;50.996;13.716;2022-11-20T09:24:06;18.20;;;10.77;;
9834;SDS011;4956;50.996;13.716;2022-11-20T09:27:27;22.00;;;12.88;;
9834;SDS011;4956;50.996;13.716;2022-11-20T09:35:04;19.02;;;10.35;;
9834;SDS011;4956;50.996;13.716;2022-11-20T09:47:08;15.07;;;8.73;;
9834;SDS011;4956;50.996;13.716;2022-11-20T09:50:35;17.23;;;9.38;;
9834;SDS011;4956;50.996;13.716;2022-11-20T09:54:05;17.35;;;9.32;;
9834;SDS011;4956;50.996;13.716;2022-11-20T09:57:37;16.83;;;9.63;;
9834;SDS011;4956;50.996;13.716;2022-11-20T10:01:00;14.95;;;9.38;;
9834;SDS011;4956;50.996;13.716;2022-11-20T10:04:26;17.23;;;9.38;;
9834;SDS011;4956;50.996;13.716;2022-11-20T10:08:11;16.83;;;9.27;;
9834;SDS011;4956;50.996;13.716;2022-11-20T10:15:10;15.70;;;9.27;;
9834;SDS011;4956;50.996;13.716;2022-11-20T10:26:02;10.65;;;6.13;;
9834;SDS011;4956;50.996;13.716;2022-11-20T10:29:27;10.23;;;5.40;;
9834;SDS011;4956;50.996;13.716;2022-11-20T10:36:58;9.73;;;5.55;;
9834;SDS011;4956;50.996;13.716;2022-11-20T10:40:40;8.73;;;5.25;;
9834;SDS011;4956;50.996;13.716;2022-11-20T10:44:09;9.85;;;5.28;;
9834;SDS011;4956;50.996;13.716;2022-11-20T10:47:56;8.82;;;5.18;;
9834;SDS011;4956;50.996;13.716;2022-11-20T10:58:35;10.05;;;5.50;;
9834;SDS011;4956;50.996;13.716;2022-11-20T11:02:00;9.88;;;5.78;;
9834;SDS011;4956;50.996;13.716;2022-11-20T11:05:22;8.65;;;5.43;;
9834;SDS011;4956;50.996;13.716;2022-11-20T11:08:48;8.23;;;5.18;;
9834;SDS011;4956;50.996;13.716;2022-11-20T11:12:09;8.48;;;5.03;;
9834;SDS011;4956;50.996;13.716;2022-11-20T11:15:36;8.13;;;5.55;;
9834;SDS011;4956;50.996;13.716;2022-11-20T11:19:05;8.13;;;5.20;;
9834;SDS011;4956;50.996;13.716;2022-11-20T11:22:28;11.18;;;5.63;;
9834;SDS011;4956;50.996;13.716;2022-11-20T11:25:55;9.50;;;5.28;;
9834;SDS011;4956;50.996;13.716;2022-11-20T11:29:18;10.10;;;5.97;;
9834;SDS011;4956;50.996;13.716;2022-11-20T11:32:38;8.48;;;5.25;;
9834;SDS011;4956;50.996;13.716;2022-11-20T11:36:00;9.45;;;6.40;;
9834;SDS011;4956;50.996;13.716;2022-11-20T11:39:23;10.70;;;6.30;;
9834;SDS011;4956;50.996;13.716;2022-11-20T11:42:52;12.43;;;6.45;;
9834;SDS011;4956;50.996;13.716;2022-11-20T11:46:31;11.07;;;6.28;;
9834;SDS011;4956;50.996;13.716;2022-11-20T11:50:14;11.48;;;6.95;;
9834;SDS011;4956;50.996;13.716;2022-11-20T11:53:37;11.15;;;6.45;;
9834;SDS011;4956;50.996;13.716;2022-11-20T11:57:01;11.82;;;6.85;;
9834;SDS011;4956;50.996;13.716;2022-11-20T12:00:25;12.73;;;6.93;;
9834;SDS011;4956;50.996;13.716;2022-11-20T12:03:52;10.63;;;6.53;;
9834;SDS011;4956;50.996;13.716;2022-11-20T12:11:03;10.93;;;6.63;;
9834;SDS011;4956;50.996;13.716;2022-11-20T12:14:39;11.95;;;7.05;;
9834;SDS011;4956;50.996;13.716;2022-11-20T12:18:01;11.02;;;6.78;;
9834;SDS011;4956;50.996;13.716;2022-11-20T12:25:33;12.85;;;7.65;;
9834;SDS011;4956;50.996;13.716;2022-11-20T12:29:02;10.98;;;6.35;;
9834;SDS011;4956;50.996;13.716;2022-11-20T12:32:39;11.68;;;7.30;;
9834;SDS011;4956;50.996;13.716;2022-11-20T12:39:48;13.20;;;7.65;;
9834;SDS011;4956;50.996;13.716;2022-11-20T12:43:21;15.38;;;8.57;;
9834;SDS011;4956;50.996;13.716;2022-11-20T12:47:14;14.52;;;7.95;;
9834;SDS011;4956;50.996;13.716;2022-11-20T12:50:46;16.00;;;8.85;;
9834;SDS011;4956;50.996;13.716;2022-11-20T12:54:14;13.77;;;8.10;;
9834;SDS011;4956;50.996;13.716;2022-11-20T13:01:45;14.07;;;8.75;;
9834;SDS011;4956;50.996;13.716;2022-11-20T13:06:12;17.08;;;9.43;;
9834;SDS011;4956;50.996;13.716;2022-11-20T13:09:48;15.82;;;8.45;;
9834;SDS011;4956;50.996;13.716;2022-11-20T13:13:14;14.65;;;8.40;;
9834;SDS011;4956;50.996;13.716;2022-11-20T13:16:50;14.68;;;8.80;;
9834;SDS011;4956;50.996;13.716;2022-11-20T13:20:16;16.42;;;9.25;;
9834;SDS011;4956;50.996;13.716;2022-11-20T13:23:37;15.82;;;9.05;;
9834;SDS011;4956;50.996;13.716;2022-11-20T13:30:32;14.07;;;7.35;;
9834;SDS011;4956;50.996;13.716;2022-11-20T13:33:53;13.88;;;7.80;;
9834;SDS011;4956;50.996;13.716;2022-11-20T13:37:24;12.85;;;7.25;;
9834;SDS011;4956;50.996;13.716;2022-11-20T13:41:03;11.65;;;6.65;;
9834;SDS011;4956;50.996;13.716;2022-11-20T13:44:45;12.13;;;7.03;;
9834;SDS011;4956;50.996;13.716;2022-11-20T13:48:18;10.23;;;6.30;;
9834;SDS011;4956;50.996;13.716;2022-11-20T13:51:43;10.38;;;6.13;;
9834;SDS011;4956;50.996;13.716;2022-11-20T13:59:04;10.43;;;6.35;;
9834;SDS011;4956;50.996;13.716;2022-11-20T14:02:42;10.98;;;6.20;;
9834;SDS011;4956;50.996;13.716;2022-11-20T14:06:05;9.93;;;6.20;;
9834;SDS011;4956;50.996;13.716;2022-11-20T14:10:03;9.70;;;6.25;;
9834;SDS011;4956;50.996;13.716;2022-11-20T14:13:24;10.35;;;6.15;;
9834;SDS011;4956;50.996;13.716;2022-11-20T14:16:45;8.45;;;5.68;;
9834;SDS011;4956;50.996;13.716;2022-11-20T14:20:06;10.80;;;6.32;;
9834;SDS011;4956;50.996;13.716;2022-11-20T14:23:32;10.35;;;6.53;;
9834;SDS011;4956;50.996;13.716;2022-11-20T14:26:53;9.15;;;6.13;;
9834;SDS011;4956;50.996;13.716;2022-11-20T14:30:14;10.38;;;6.68;;
9834;SDS011;4956;50.996;13.716;2022-11-20T14:33:36;10.95;;;6.80;;
9834;SDS011;4956;50.996;13.716;2022-11-20T14:36:57;12.35;;;7.15;;
9834;SDS011;4956;50.996;13.716;2022-11-20T14:40:30;11.80;;;7.18;;
9834;SDS011;4956;50.996;13.716;2022-11-20T14:43:58;12.45;;;7.25;;
9834;SDS011;4956;50.996;13.716;2022-11-20T14:47:21;12.55;;;7.60;;
9834;SDS011;4956;50.996;13.716;2022-11-20T14:50:42;11.52;;;7.30;;
9834;SDS011;4956;50.996;13.716;2022-11-20T14:54:18;11.52;;;7.30;;
9834;SDS011;4956;50.996;13.716;2022-11-20T14:57:43;11.45;;;7.53;;
9834;SDS011;4956;50.996;13.716;2022-11-20T15:01:04;12.63;;;7.82;;
9834;SDS011;4956;50.996;13.716;2022-11-20T15:04:27;11.70;;;7.28;;
9834;SDS011;4956;50.996;13.716;2022-11-20T15:07:49;11.52;;;7.20;;
9834;SDS011;4956;50.996;13.716;2022-11-20T15:11:18;13.75;;;8.13;;
9834;SDS011;4956;50.996;13.716;2022-11-20T15:14:45;12.43;;;7.60;;
9834;SDS011;4956;50.996;13.716;2022-11-20T15:18:10;11.95;;;7.75;;
9834;SDS011;4956;50.996;13.716;2022-11-20T15:21:32;14.68;;;8.45;;
9834;SDS011;4956;50.996;13.716;2022-11-20T15:24:53;14.32;;;8.10;;
9834;SDS011;4956;50.996;13.716;2022-11-20T15:28:20;14.68;;;8.80;;
9834;SDS011;4956;50.996;13.716;2022-11-20T15:31:51;15.27;;;8.43;;
9834;SDS011;4956;50.996;13.716;2022-11-20T15:35:13;15.90;;;9.35;;
9834;SDS011;4956;50.996;13.716;2022-11-20T15:38:34;14.63;;;9.00;;
9834;SDS011;4956;50.996;13.716;2022-11-20T15:41:54;13.93;;;8.55;;
9834;SDS011;4956;50.996;13.716;2022-11-20T15:45:14;14.18;;;8.13;;
9834;SDS011;4956;50.996;13.716;2022-11-20T15:48:36;13.20;;;7.72;;
9834;SDS011;4956;50.996;13.716;2022-11-20T15:51:58;14.02;;;8.32;;
9834;SDS011;4956;50.996;13.716;2022-11-20T15:55:19;12.50;;;7.53;;
9834;SDS011;4956;50.996;13.716;2022-11-20T15:58:39;14.23;;;8.20;;
9834;SDS011;4956;50.996;13.716;2022-11-20T16:02:00;15.90;;;8.82;;
9834;SDS011;4956;50.996;13.716;2022-11-20T16:05:21;16.52;;;9.88;;
9834;SDS011;4956;50.996;13.716;2022-11-20T16:08:43;17.73;;;9.93;;
9834;SDS011;4956;50.996;13.716;2022-11-20T16:12:03;16.80;;;9.23;;
9834;SDS011;4956;50.996;13.716;2022-11-20T16:15:24;30.80;;;16.33;;
9834;SDS011;4956;50.996;13.716;2022-11-20T16:19:03;17.48;;;9.27;;
9834;SDS011;4956;50.996;13.716;2022-11-20T16:22:23;23.13;;;10.95;;
9834;SDS011;4956;50.996;13.716;2022-11-20T16:25:44;23.90;;;13.45;;
9834;SDS011;4956;50.996;13.716;2022-11-20T16:29:04;19.67;;;11.00;;
9834;SDS011;4956;50.996;13.716;2022-11-20T16:32:25;24.70;;;12.70;;
9834;SDS011;4956;50.996;13.716;2022-11-20T16:35:46;14.43;;;8.52;;
9834;SDS011;4956;50.996;13.716;2022-11-20T16:39:06;13.68;;;7.55;;
9834;SDS011;4956;50.996;13.716;2022-11-20T16:42:26;13.85;;;7.80;;
9834;SDS011;4956;50.996;13.716;2022-11-20T16:45:47;12.88;;;7.72;;
9834;SDS011;4956;50.996;13.716;2022-11-20T16:49:10;14.13;;;7.93;;
9834;SDS011;4956;50.996;13.716;2022-11-20T16:52:32;14.18;;;8.15;;
9834;SDS011;4956;50.996;13.716;2022-11-20T16:55:52;14.25;;;8.07;;
9834;SDS011;4956;50.996;13.716;2022-11-20T16:59:13;14.05;;;7.95;;
9834;SDS011;4956;50.996;13.716;2022-11-20T17:02:33;13.55;;;8.20;;
9834;SDS011;4956;50.996;13.716;2022-11-20T17:05:53;14.63;;;8.10;;
9834;SDS011;4956;50.996;13.716;2022-11-20T17:09:14;13.82;;;7.47;;
9834;SDS011;4956;50.996;13.716;2022-11-20T17:12:34;13.52;;;8.20;;
9834;SDS011;4956;50.996;13.716;2022-11-20T17:15:59;13.65;;;8.18;;
9834;SDS011;4956;50.996;13.716;2022-11-20T17:19:20;14.68;;;8.00;;
9834;SDS011;4956;50.996;13.716;2022-11-20T17:22:41;14.02;;;8.38;;
9834;SDS011;4956;50.996;13.716;2022-11-20T17:26:05;15.30;;;8.57;;
9834;SDS011;4956;50.996;13.716;2022-11-20T17:29:26;14.07;;;7.80;;
9834;SDS011;4956;50.996;13.716;2022-11-20T17:32:46;15.63;;;8.55;;
9834;SDS011;4956;50.996;13.716;2022-11-20T17:36:08;15.95;;;8.90;;
9834;SDS011;4956;50.996;13.716;2022-11-20T17:39:29;16.77;;;8.93;;
9834;SDS011;4956;50.996;13.716;2022-11-20T17:42:49;15.45;;;8.50;;
9834;SDS011;4956;50.996;13.716;2022-11-20T17:46:11;14.63;;;8.52;;
9834;SDS011;4956;50.996;13.716;2022-11-20T17:49:33;14.90;;;8.05;;
9834;SDS011;4956;50.996;13.716;2022-11-20T17:52:53;14.35;;;8.60;;
9834;SDS011;4956;50.996;13.716;2022-11-20T17:56:14;14.20;;;8.05;;
9834;SDS011;4956;50.996;13.716;2022-11-20T17:59:53;14.23;;;8.20;;
9834;SDS011;4956;50.996;13.716;2022-11-20T18:03:13;13.77;;;8.55;;
9834;SDS011;4956;50.996;13.716;2022-11-20T18:06:34;14.68;;;8.48;;
9834;SDS011;4956;50.996;13.716;2022-11-20T18:09:54;13.32;;;8.07;;
9834;SDS011;4956;50.996;13.716;2022-11-20T18:13:14;13.20;;;8.18;;
9834;SDS011;4956;50.996;13.716;2022-11-20T18:16:36;17.73;;;8.73;;
9834;SDS011;4956;50.996;13.716;2022-11-20T18:19:58;13.93;;;8.55;;
9834;SDS011;4956;50.996;13.716;2022-11-20T18:23:19;13.25;;;8.25;;
9834;SDS011;4956;50.996;13.716;2022-11-20T18:26:39;14.05;;;8.15;;
9834;SDS011;4956;50.996;13.716;2022-11-20T18:30:00;13.48;;;7.93;;
9834;SDS011;4956;50.996;13.716;2022-11-20T18:33:20;12.75;;;7.90;;
9834;SDS011;4956;50.996;13.716;2022-11-20T18:36:40;12.20;;;7.75;;
9834;SDS011;4956;50.996;13.716;2022-11-20T18:40:01;14.57;;;7.60;;
9834;SDS011;4956;50.996;13.716;2022-11-20T18:43:22;11.77;;;7.80;;
9834;SDS011;4956;50.996;13.716;2022-11-20T18:47:01;12.38;;;7.32;;
9834;SDS011;4956;50.996;13.716;2022-11-20T18:50:21;11.25;;;7.20;;
9834;SDS011;4956;50.996;13.716;2022-11-20T18:53:42;11.82;;;7.13;;
9834;SDS011;4956;50.996;13.716;2022-11-20T18:57:03;11.82;;;7.30;;
9834;SDS011;4956;50.996;13.716;2022-11-20T19:00:23;10.40;;;6.47;;
9834;SDS011;4956;50.996;13.716;2022-11-20T19:03:44;12.32;;;7.95;;
9834;SDS011;4956;50.996;13.716;2022-11-20T19:07:06;13.38;;;8.35;;
9834;SDS011;4956;50.996;13.716;2022-11-20T19:10:26;13.55;;;8.10;;
9834;SDS011;4956;50.996;13.716;2022-11-20T19:13:47;13.48;;;8.30;;
9834;SDS011;4956;50.996;13.716;2022-11-20T19:17:07;14.50;;;8.55;;
9834;SDS011;4956;50.996;13.716;2022-11-20T19:20:29;14.00;;;8.20;;
9834;SDS011;4956;50.996;13.716;2022-11-20T19:23:51;16.58;;;8.90;;
9834;SDS011;4956;50.996;13.716;2022-11-20T19:27:13;16.73;;;9.88;;
9834;SDS011;4956;50.996;13.716;2022-11-20T19:30:34;17.55;;;10.35;;
9834;SDS011;4956;50.996;13.716;2022-11-20T19:33:58;16.80;;;9.93;;
9834;SDS011;4956;50.996;13.716;2022-11-20T19:37:19;14.73;;;9.10;;
9834;SDS011;4956;50.996;13.716;2022-11-20T19:40:40;16.10;;;9.15;;
9834;SDS011;4956;50.996;13.716;2022-11-20T19:44:05;16.25;;;10.05;;
9834;SDS011;4956;50.996;13.716;2022-11-20T19:47:27;17.85;;;10.43;;
9834;SDS011;4956;50.996;13.716;2022-11-20T19:50:47;17.15;;;10.02;;
9834;SDS011;4956;50.996;13.716;2022-11-20T19:54:08;17.20;;;10.35;;
9834;SDS011;4956;50.996;13.716;2022-11-20T19:57:28;15.85;;;10.07;;
9834;SDS011;4956;50.996;13.716;2022-11-20T20:00:48;17.50;;;10.02;;
9834;SDS011;4956;50.996;13.716;2022-11-20T20:04:09;16.95;;;9.95;;
9834;SDS011;4956;50.996;13.716;2022-11-20T20:07:29;19.50;;;11.10;;
9834;SDS011;4956;50.996;13.716;2022-11-20T20:10:50;17.95;;;10.43;;
9834;SDS011;4956;50.996;13.716;2022-11-20T20:14:12;21.42;;;10.48;;
9834;SDS011;4956;50.996;13.716;2022-11-20T20:17:34;17.83;;;10.27;;
9834;SDS011;4956;50.996;13.716;2022-11-20T20:20:54;16.58;;;9.50;;
9834;SDS011;4956;50.996;13.716;2022-11-20T20:24:14;16.63;;;10.18;;
9834;SDS011;4956;50.996;13.716;2022-11-20T20:27:35;16.48;;;9.55;;
9834;SDS011;4956;50.996;13.716;2022-11-20T20:31:04;19.35;;;10.27;;
9834;SDS011;4956;50.996;13.716;2022-11-20T20:34:26;17.67;;;10.35;;
9834;SDS011;4956;50.996;13.716;2022-11-20T20:37:48;17.88;;;10.40;;
9834;SDS011;4956;50.996;13.716;2022-11-20T20:41:09;20.80;;;10.70;;
9834;SDS011;4956;50.996;13.716;2022-11-20T20:44:29;19.27;;;11.15;;
9834;SDS011;4956;50.996;13.716;2022-11-20T20:48:08;20.88;;;12.63;;
9834;SDS011;4956;50.996;13.716;2022-11-20T20:51:28;20.02;;;11.70;;
9834;SDS011;4956;50.996;13.716;2022-11-20T20:54:49;19.52;;;11.27;;
9834;SDS011;4956;50.996;13.716;2022-11-20T20:58:09;20.40;;;11.48;;
9834;SDS011;4956;50.996;13.716;2022-11-20T21:01:29;18.42;;;10.88;;
9834;SDS011;4956;50.996;13.716;2022-11-20T21:04:50;17.02;;;10.70;;
9834;SDS011;4956;50.996;13.716;2022-11-20T21:08:11;15.32;;;9.73;;
9834;SDS011;4956;50.996;13.716;2022-11-20T21:11:40;17.67;;;10.43;;
9834;SDS011;4956;50.996;13.716;2022-11-20T21:15:00;16.17;;;9.98;;
9834;SDS011;4956;50.996;13.716;2022-11-20T21:18:23;17.33;;;10.15;;
9834;SDS011;4956;50.996;13.716;2022-11-20T21:21:43;19.40;;;10.02;;
9834;SDS011;4956;50.996;13.716;2022-11-20T21:25:18;17.75;;;10.07;;